createdAt,value
2018-09-18T00:01:36.080Z,99.90
2018-09-18T00:04:05.113Z,99.90
2018-09-18T00:06:34.198Z,99.90
2018-09-18T00:09:03.330Z,99.90
2018-09-18T00:11:32.306Z,99.90
2018-09-18T00:14:01.288Z,99.90
2018-09-18T00:16:30.314Z,99.90
2018-09-18T00:18:59.432Z,99.90
2018-09-18T00:21:28.512Z,99.90
2018-09-18T00:23:57.542Z,99.90
2018-09-18T00:26:26.675Z,99.90
2018-09-18T00:28:55.672Z,99.90
2018-09-18T00:31:24.695Z,99.90
2018-09-18T00:33:53.785Z,99.90
2018-09-18T00:36:22.918Z,99.90
2018-09-18T00:38:51.899Z,99.90
2018-09-18T00:41:20.830Z,99.90
2018-09-18T00:43:49.789Z,99.90
2018-09-18T00:46:18.742Z,99.90
2018-09-18T00:48:47.701Z,99.90
2018-09-18T00:51:16.621Z,99.90
2018-09-18T00:53:45.591Z,99.90
2018-09-18T00:56:14.641Z,99.90
2018-09-18T00:58:43.669Z,99.90
2018-09-18T01:01:12.614Z,99.90
2018-09-18T01:03:41.637Z,99.90
2018-09-18T01:06:10.738Z,99.90
2018-09-18T01:08:39.783Z,99.90
2018-09-18T01:11:09.818Z,99.90
2018-09-18T01:13:38.756Z,99.90
2018-09-18T01:16:07.993Z,99.90
2018-09-18T01:18:41.852Z,99.90
2018-09-18T01:21:11.589Z,99.90
2018-09-18T01:23:40.516Z,99.90
2018-09-18T01:26:09.700Z,99.90
2018-09-18T01:28:38.638Z,99.90
2018-09-18T01:31:07.594Z,99.90
2018-09-18T01:33:36.558Z,99.90
2018-09-18T01:36:05.581Z,99.90
2018-09-18T01:38:34.569Z,99.90
2018-09-18T01:41:03.521Z,99.90
2018-09-18T01:43:32.528Z,99.90
2018-09-18T01:46:01.494Z,99.90
2018-09-18T01:48:30.573Z,99.90
2018-09-18T01:50:59.531Z,99.90
2018-09-18T01:53:28.462Z,99.90
2018-09-18T01:55:57.410Z,99.90
2018-09-18T01:58:26.391Z,99.90
2018-09-18T02:00:55.351Z,99.90
2018-09-18T02:03:24.368Z,99.90
2018-09-18T02:05:53.304Z,99.90
2018-09-18T02:08:22.382Z,99.90
2018-09-18T02:10:51.389Z,99.90
2018-09-18T02:13:20.361Z,99.90
2018-09-18T02:15:49.315Z,99.90
2018-09-18T02:18:18.357Z,99.90
2018-09-18T02:20:47.325Z,99.90
2018-09-18T02:23:16.322Z,99.90
2018-09-18T02:25:45.317Z,99.90
2018-09-18T02:28:14.285Z,99.90
2018-09-18T02:30:43.229Z,99.90
2018-09-18T02:33:12.214Z,99.90
2018-09-18T02:35:41.182Z,99.90
2018-09-18T02:38:10.131Z,99.90
2018-09-18T02:40:39.195Z,99.90
2018-09-18T02:43:08.157Z,99.90
2018-09-18T02:45:37.346Z,99.90
2018-09-18T02:48:06.442Z,99.90
2018-09-18T02:50:35.498Z,99.90
2018-09-18T02:53:04.462Z,99.90
2018-09-18T02:55:33.521Z,99.90
2018-09-18T02:58:02.616Z,99.90
2018-09-18T03:00:31.650Z,99.90
2018-09-18T03:03:01.672Z,99.90
2018-09-18T03:05:30.633Z,99.90
2018-09-18T03:07:59.711Z,99.90
2018-09-18T03:10:28.768Z,99.90
2018-09-18T03:12:57.797Z,99.90
2018-09-18T03:15:26.779Z,99.90
2018-09-18T03:17:55.718Z,99.90
2018-09-18T03:20:24.713Z,99.90
2018-09-18T03:22:53.651Z,99.90
2018-09-18T03:25:22.687Z,99.90
2018-09-18T03:27:51.690Z,99.90
2018-09-18T03:30:20.701Z,99.90
2018-09-18T03:32:49.626Z,99.90
2018-09-18T03:35:18.576Z,99.90
2018-09-18T03:37:47.522Z,99.90
2018-09-18T03:40:16.449Z,99.90
2018-09-18T03:42:45.371Z,99.90
2018-09-18T03:45:20.034Z,99.90
2018-09-18T03:47:48.983Z,99.90
2018-09-18T03:50:18.192Z,99.90
2018-09-18T03:52:47.162Z,99.90
2018-09-18T03:55:16.531Z,99.90
2018-09-18T03:57:45.502Z,99.90
2018-09-18T04:00:14.544Z,99.90
2018-09-18T04:02:43.612Z,99.90
2018-09-18T04:05:12.669Z,99.90
2018-09-18T04:07:41.676Z,99.90
2018-09-18T04:10:10.763Z,99.90
2018-09-18T04:12:41.302Z,99.90
2018-09-18T04:15:10.397Z,99.90
2018-09-18T04:17:40.626Z,99.90
2018-09-18T04:20:09.729Z,99.90
2018-09-18T04:22:38.719Z,99.90
2018-09-18T04:25:08.437Z,99.90
2018-09-18T04:27:37.669Z,99.90
2018-09-18T04:30:06.714Z,99.90
2018-09-18T04:32:35.873Z,99.90
2018-09-18T04:35:04.885Z,99.90
2018-09-18T04:37:33.878Z,99.90
2018-09-18T04:40:02.987Z,99.90
2018-09-18T04:42:31.968Z,99.90
2018-09-18T04:45:01.094Z,99.90
2018-09-18T04:47:30.181Z,99.90
2018-09-18T04:49:59.262Z,99.90
2018-09-18T04:52:28.232Z,99.90
2018-09-18T04:54:57.296Z,99.90
2018-09-18T04:57:26.325Z,99.90
2018-09-18T04:59:55.337Z,99.90
2018-09-18T05:02:24.378Z,99.90
2018-09-18T05:04:53.386Z,99.90
2018-09-18T05:07:22.397Z,99.90
2018-09-18T05:09:51.586Z,99.90
2018-09-18T05:12:20.694Z,99.90
2018-09-18T05:14:49.878Z,99.90
2018-09-18T05:17:19.070Z,99.90
2018-09-18T05:19:48.271Z,99.90
2018-09-18T05:22:17.405Z,99.90
2018-09-18T05:24:46.418Z,99.90
2018-09-18T05:27:15.485Z,99.90
2018-09-18T05:29:44.536Z,99.90
2018-09-18T05:32:13.682Z,99.90
2018-09-18T05:34:42.658Z,99.90
2018-09-18T05:37:11.594Z,99.90
2018-09-18T05:39:40.827Z,99.90
2018-09-18T05:42:09.878Z,99.90
2018-09-18T05:44:38.848Z,99.90
2018-09-18T05:47:08.558Z,99.90
2018-09-18T05:49:37.618Z,99.90
2018-09-18T05:52:06.742Z,99.90
2018-09-18T05:54:35.729Z,99.90
2018-09-18T05:57:04.712Z,99.90
2018-09-18T05:59:33.811Z,99.90
2018-09-18T06:02:02.825Z,99.90
2018-09-18T06:04:31.835Z,99.90
2018-09-18T06:07:00.776Z,99.90
2018-09-18T06:09:29.829Z,99.90
2018-09-18T06:11:58.969Z,99.90
2018-09-18T06:14:28.078Z,99.90
2018-09-18T06:16:57.027Z,99.90
2018-09-18T06:19:26.027Z,99.90
2018-09-18T06:21:54.946Z,99.90
2018-09-18T06:24:23.911Z,99.90
2018-09-18T06:26:52.884Z,99.90
2018-09-18T06:29:21.845Z,99.90
2018-09-18T06:31:50.842Z,99.90
2018-09-18T06:34:20.854Z,99.90
2018-09-18T06:36:49.877Z,99.90
2018-09-18T06:39:18.829Z,99.90
2018-09-18T06:41:47.823Z,99.90
2018-09-18T06:44:16.881Z,99.90
2018-09-18T06:46:45.874Z,99.90
2018-09-18T06:49:14.901Z,99.90
2018-09-18T06:51:43.914Z,99.90
2018-09-18T06:54:13.173Z,99.90
2018-09-18T06:56:42.101Z,99.90
2018-09-18T06:59:11.093Z,99.90
2018-09-18T07:01:40.118Z,99.90
2018-09-18T07:04:09.061Z,99.90
2018-09-18T07:06:38.085Z,99.90
2018-09-18T07:09:07.844Z,99.90
2018-09-18T07:11:37.051Z,99.90
2018-09-18T07:14:06.675Z,99.90
2018-09-18T07:16:35.730Z,99.90
2018-09-18T07:19:04.658Z,99.90
2018-09-18T07:21:33.701Z,99.90
2018-09-18T07:24:02.671Z,99.90
2018-09-18T07:26:31.637Z,99.90
2018-09-18T07:29:00.644Z,99.90
2018-09-18T07:31:29.716Z,99.90
2018-09-18T07:33:58.774Z,99.90
2018-09-18T07:36:27.810Z,99.90
2018-09-18T07:38:56.898Z,99.90
2018-09-18T07:41:26.110Z,99.30
2018-09-18T07:43:55.110Z,99.00
2018-09-18T07:46:24.094Z,99.00
2018-09-18T07:48:58.390Z,98.60
2018-09-18T07:51:27.354Z,98.00
2018-09-18T07:53:56.420Z,97.40
2018-09-18T07:56:25.386Z,97.20
2018-09-18T07:58:54.385Z,97.20
2018-09-18T08:01:23.453Z,96.70
2018-09-18T08:03:52.470Z,96.70
2018-09-18T08:06:21.438Z,96.20
2018-09-18T08:08:50.567Z,95.70
2018-09-18T08:11:19.613Z,95.90
2018-09-18T08:13:48.588Z,95.50
2018-09-18T08:16:17.593Z,95.40
2018-09-18T08:18:46.589Z,95.20
2018-09-18T08:21:15.589Z,95.30
2018-09-18T08:23:44.614Z,95.00
2018-09-18T08:26:13.669Z,94.10
2018-09-18T08:28:42.716Z,93.70
2018-09-18T08:31:11.674Z,93.30
2018-09-18T08:33:40.651Z,93.20
2018-09-18T08:36:09.686Z,92.90
2018-09-18T08:38:38.839Z,92.20
2018-09-18T08:41:07.792Z,92.30
2018-09-18T08:43:36.786Z,92.20
2018-09-18T08:46:05.863Z,92.80
2018-09-18T08:48:34.817Z,92.00
2018-09-18T08:51:03.817Z,91.60
2018-09-18T08:53:32.835Z,91.80
2018-09-18T08:56:01.920Z,90.70
2018-09-18T08:58:30.899Z,90.40
2018-09-18T09:00:59.893Z,90.70
2018-09-18T09:03:29.713Z,90.20
2018-09-18T09:05:58.902Z,88.80
2018-09-18T09:08:27.964Z,90.00
2018-09-18T09:10:56.892Z,88.80
2018-09-18T09:13:25.851Z,87.80
2018-09-18T09:15:54.837Z,88.80
2018-09-18T09:18:24.208Z,88.30
2018-09-18T09:20:53.121Z,87.10
2018-09-18T09:23:22.009Z,86.30
2018-09-18T09:25:51.075Z,84.40
2018-09-18T09:28:20.038Z,84.00
2018-09-18T09:30:49.003Z,85.50
2018-09-18T09:33:17.983Z,85.10
2018-09-18T09:35:46.998Z,83.70
2018-09-18T09:38:15.954Z,84.30
2018-09-18T09:40:45.038Z,82.20
2018-09-18T09:43:14.014Z,82.90
2018-09-18T09:45:43.014Z,83.30
2018-09-18T09:48:11.955Z,81.20
2018-09-18T09:50:40.996Z,81.10
2018-09-18T09:53:10.031Z,81.30
2018-09-18T09:55:39.117Z,81.70
2018-09-18T09:58:08.134Z,80.90
2018-09-18T10:00:45.404Z,79.90
2018-09-18T10:03:14.621Z,78.80
2018-09-18T10:05:43.600Z,78.70
2018-09-18T10:08:12.647Z,80.90
2018-09-18T10:10:41.751Z,80.00
2018-09-18T10:13:10.666Z,79.40
2018-09-18T10:15:39.671Z,79.30
2018-09-18T10:18:08.925Z,76.60
2018-09-18T10:20:37.974Z,77.70
2018-09-18T10:23:07.069Z,78.40
2018-09-18T10:25:36.199Z,79.40
2018-09-18T10:28:05.291Z,78.60
2018-09-18T10:30:34.333Z,80.50
2018-09-18T10:33:04.026Z,80.70
2018-09-18T10:35:32.982Z,79.50
2018-09-18T10:38:01.956Z,79.90
2018-09-18T10:40:31.164Z,78.90
2018-09-18T10:43:00.145Z,79.40
2018-09-18T10:45:29.207Z,79.60
2018-09-18T10:47:58.150Z,80.20
2018-09-18T10:50:27.122Z,79.70
2018-09-18T10:52:56.080Z,78.80
2018-09-18T10:55:25.110Z,78.70
2018-09-18T10:57:54.074Z,77.90
2018-09-18T11:00:23.049Z,78.60
2018-09-18T11:02:51.995Z,78.40
2018-09-18T11:05:20.934Z,79.80
2018-09-18T11:07:49.959Z,76.10
2018-09-18T11:10:18.971Z,77.20
2018-09-18T11:12:47.942Z,75.70
2018-09-18T11:15:16.988Z,76.70
2018-09-18T11:17:45.929Z,74.60
2018-09-18T11:20:14.935Z,74.40
2018-09-18T11:22:43.891Z,74.20
2018-09-18T11:25:13.094Z,72.20
2018-09-18T11:27:41.993Z,70.50
2018-09-18T11:30:11.163Z,68.60
2018-09-18T11:32:40.308Z,67.40
2018-09-18T11:35:09.203Z,68.00
2018-09-18T11:37:38.308Z,67.30
2018-09-18T11:40:07.266Z,66.90
2018-09-18T11:42:36.233Z,67.10
2018-09-18T11:45:05.470Z,63.60
2018-09-18T11:47:34.466Z,63.80
2018-09-18T11:50:03.493Z,61.00
2018-09-18T11:52:32.440Z,60.30
2018-09-18T11:55:01.432Z,59.30
2018-09-18T11:57:30.426Z,58.90
2018-09-18T11:59:59.382Z,59.10
2018-09-18T12:02:28.425Z,59.50
2018-09-18T12:04:57.378Z,59.00
2018-09-18T12:07:26.354Z,59.50
2018-09-18T12:09:55.386Z,56.40
2018-09-18T12:12:24.279Z,55.30
2018-09-18T12:14:53.497Z,54.70
2018-09-18T12:17:22.475Z,55.00
2018-09-18T12:19:51.498Z,54.60
2018-09-18T12:22:20.643Z,55.10
2018-09-18T12:24:49.591Z,55.10
2018-09-18T12:27:18.783Z,53.90
2018-09-18T12:29:47.873Z,55.00
2018-09-18T12:32:16.852Z,54.70
2018-09-18T12:34:45.861Z,54.00
2018-09-18T12:37:14.827Z,54.20
2018-09-18T12:39:43.801Z,54.20
2018-09-18T12:42:12.873Z,53.80
2018-09-18T12:44:41.810Z,54.50
2018-09-18T12:47:10.841Z,54.20
2018-09-18T12:49:40.088Z,54.00
2018-09-18T12:52:08.901Z,53.20
2018-09-18T12:54:37.898Z,53.40
2018-09-18T12:57:07.034Z,53.90
2018-09-18T12:59:35.882Z,54.10
2018-09-18T13:02:04.835Z,53.80
2018-09-18T13:04:34.858Z,53.00
2018-09-18T13:07:03.921Z,54.60
2018-09-18T13:09:32.846Z,52.40
2018-09-18T13:12:02.904Z,51.80
2018-09-18T13:14:31.867Z,51.70
2018-09-18T13:17:00.909Z,51.60
2018-09-18T13:19:29.841Z,52.20
2018-09-18T13:21:58.850Z,51.50
2018-09-18T13:24:27.848Z,50.30
2018-09-18T13:26:56.842Z,50.10
2018-09-18T13:29:25.820Z,50.50
2018-09-18T13:31:54.822Z,49.60
2018-09-18T13:34:23.945Z,49.30
2018-09-18T13:36:52.943Z,49.60
2018-09-18T13:39:22.030Z,50.00
2018-09-18T13:41:50.997Z,50.20
2018-09-18T13:44:19.997Z,48.40
2018-09-18T13:46:49.028Z,47.80
2018-09-18T13:49:17.989Z,47.70
2018-09-18T13:51:47.026Z,48.30
2018-09-18T13:54:16.014Z,48.30
2018-09-18T13:56:45.006Z,48.60
2018-09-18T13:59:14.014Z,48.60
2018-09-18T14:01:43.180Z,49.20
2018-09-18T14:04:11.999Z,49.20
2018-09-18T14:06:40.990Z,48.90
2018-09-18T14:09:10.272Z,48.20
2018-09-18T14:11:39.181Z,48.10
2018-09-18T14:14:08.282Z,48.40
2018-09-18T14:16:37.222Z,49.10
2018-09-18T14:19:06.191Z,48.80
2018-09-18T14:21:35.593Z,49.20
2018-09-18T14:24:04.629Z,49.50
2018-09-18T14:26:33.845Z,50.10
2018-09-18T14:29:02.835Z,50.30
2018-09-18T14:31:31.808Z,50.50
2018-09-18T14:34:00.795Z,50.30
2018-09-18T14:36:29.797Z,51.70
2018-09-18T14:38:58.802Z,50.30
2018-09-18T14:41:27.752Z,49.60
2018-09-18T14:43:56.805Z,50.10
2018-09-18T14:46:25.797Z,50.70
2018-09-18T14:48:54.896Z,50.60
2018-09-18T14:51:23.858Z,51.00
2018-09-18T14:53:52.854Z,51.60
2018-09-18T14:56:21.810Z,52.40
2018-09-18T14:58:50.841Z,51.50
2018-09-18T15:01:19.838Z,50.70
2018-09-18T15:03:49.858Z,50.80
2018-09-18T15:06:18.841Z,51.00
2018-09-18T15:08:47.873Z,50.70
2018-09-18T15:11:16.845Z,50.10
2018-09-18T15:13:45.915Z,50.70
2018-09-18T15:16:14.921Z,51.10
2018-09-18T15:18:43.909Z,50.20
2018-09-18T15:21:12.895Z,50.30
2018-09-18T15:23:41.814Z,50.80
2018-09-18T15:26:10.897Z,49.60
2018-09-18T15:28:39.940Z,49.80
2018-09-18T15:31:09.264Z,50.20
2018-09-18T15:33:38.347Z,49.90
2018-09-18T15:36:07.236Z,50.20
2018-09-18T15:38:36.550Z,49.90
2018-09-18T15:41:05.554Z,49.50
2018-09-18T15:43:34.564Z,49.40
2018-09-18T15:46:03.595Z,49.60
2018-09-18T15:48:32.620Z,50.40
2018-09-18T15:51:01.568Z,50.60
2018-09-18T15:53:30.542Z,50.40
2018-09-18T15:55:59.621Z,51.20
2018-09-18T15:58:28.630Z,50.30
2018-09-18T16:00:57.606Z,50.80
2018-09-18T16:03:26.590Z,51.20
2018-09-18T16:05:55.585Z,50.70
2018-09-18T16:08:24.615Z,51.20
2018-09-18T16:10:53.589Z,51.80
2018-09-18T16:13:22.558Z,52.30
2018-09-18T16:15:51.535Z,52.80
2018-09-18T16:18:20.593Z,53.60
2018-09-18T16:20:49.646Z,53.40
2018-09-18T16:23:18.595Z,53.60
2018-09-18T16:25:47.652Z,54.10
2018-09-18T16:28:16.646Z,54.10
2018-09-18T16:30:45.662Z,54.40
2018-09-18T16:33:14.637Z,54.30
2018-09-18T16:35:43.617Z,55.30
2018-09-18T16:38:12.604Z,54.80
2018-09-18T16:40:42.776Z,54.80
2018-09-18T16:43:11.783Z,55.20
2018-09-18T16:45:40.788Z,55.60
2018-09-18T16:48:09.813Z,56.50
2018-09-18T16:50:38.881Z,56.10
2018-09-18T16:53:08.023Z,56.00
2018-09-18T16:55:37.063Z,57.20
2018-09-18T16:58:06.970Z,56.40
2018-09-18T17:00:36.067Z,57.40
2018-09-18T17:03:05.402Z,57.60
2018-09-18T17:05:34.638Z,58.90
2018-09-18T17:08:03.617Z,59.40
2018-09-18T17:10:32.631Z,59.80
2018-09-18T17:13:01.601Z,61.60
2018-09-18T17:15:30.670Z,61.60
2018-09-18T17:17:59.761Z,59.50
2018-09-18T17:20:28.798Z,63.30
2018-09-18T17:22:57.782Z,63.00
2018-09-18T17:25:27.087Z,62.80
2018-09-18T17:27:56.148Z,63.60
2018-09-18T17:30:25.268Z,65.30
2018-09-18T17:32:54.238Z,70.30
2018-09-18T17:35:23.319Z,70.00
2018-09-18T17:37:52.373Z,73.30
2018-09-18T17:40:21.622Z,72.00
2018-09-18T17:42:50.635Z,73.80
2018-09-18T17:45:19.633Z,76.50
2018-09-18T17:47:48.727Z,77.80
2018-09-18T17:50:17.797Z,77.80
2018-09-18T17:52:46.752Z,79.70
2018-09-18T17:55:15.767Z,80.00
2018-09-18T17:57:44.923Z,82.10
2018-09-18T18:00:13.872Z,84.40
2018-09-18T18:02:42.970Z,85.10
2018-09-18T18:05:11.982Z,86.70
2018-09-18T18:07:40.985Z,86.60
2018-09-18T18:10:11.098Z,87.90
2018-09-18T18:12:40.096Z,88.60
2018-09-18T18:15:09.149Z,90.00
2018-09-18T18:17:38.183Z,90.40
2018-09-18T18:20:07.234Z,90.90
2018-09-18T18:22:36.294Z,91.20
2018-09-18T18:25:05.378Z,91.70
2018-09-18T18:27:34.339Z,91.70
2018-09-18T18:30:03.389Z,92.10
2018-09-18T18:32:32.655Z,92.20
2018-09-18T18:35:01.647Z,92.70
2018-09-18T18:37:30.672Z,93.80
2018-09-18T18:40:00.701Z,93.70
2018-09-18T18:42:29.777Z,94.10
2018-09-18T18:44:58.754Z,94.70
2018-09-18T18:47:27.758Z,94.90
2018-09-18T18:49:56.693Z,95.40
2018-09-18T18:52:25.642Z,95.30
2018-09-18T18:54:54.686Z,95.60
2018-09-18T18:57:23.790Z,95.80
2018-09-18T18:59:52.864Z,96.20
2018-09-18T19:02:21.924Z,96.40
2018-09-18T19:04:52.022Z,96.70
2018-09-18T19:07:21.040Z,96.70
2018-09-18T19:09:50.184Z,97.30
2018-09-18T19:12:19.311Z,97.50
2018-09-18T19:14:48.234Z,98.00
2018-09-18T19:17:17.309Z,98.00
2018-09-18T19:19:46.455Z,98.70
2018-09-18T19:22:15.517Z,98.50
2018-09-18T19:24:44.466Z,99.40
2018-09-18T19:27:13.465Z,99.40
2018-09-18T19:29:42.659Z,99.90
2018-09-18T19:32:11.649Z,99.90
2018-09-18T19:34:40.747Z,99.90
2018-09-18T19:37:10.516Z,99.90
2018-09-18T19:39:40.144Z,99.90
2018-09-18T19:42:09.378Z,99.90
2018-09-18T19:44:39.344Z,99.90
2018-09-18T19:47:08.442Z,99.90
2018-09-18T19:49:40.094Z,99.90
2018-09-18T19:52:10.033Z,99.90
2018-09-18T19:54:39.432Z,99.90
2018-09-18T19:57:08.776Z,99.90
2018-09-18T19:59:37.811Z,99.90
2018-09-18T20:02:06.978Z,99.90
2018-09-18T20:04:36.014Z,99.90
2018-09-18T20:07:05.066Z,99.90
2018-09-18T20:09:35.093Z,99.90
2018-09-18T20:12:04.805Z,99.90
2018-09-18T20:14:34.853Z,99.90
2018-09-18T20:17:05.440Z,99.90
2018-09-18T20:19:34.514Z,99.90
2018-09-18T20:22:03.617Z,99.90
2018-09-18T20:24:32.745Z,99.90
2018-09-18T20:27:01.805Z,99.90
2018-09-18T20:29:30.890Z,99.90
2018-09-18T20:32:00.015Z,99.90
2018-09-18T20:34:29.098Z,99.90
2018-09-18T20:36:58.192Z,99.90
2018-09-18T20:39:27.231Z,99.90
2018-09-18T20:41:56.201Z,99.90
2018-09-18T20:44:25.207Z,99.90
2018-09-18T20:46:54.274Z,99.90
2018-09-18T20:49:23.446Z,99.90
2018-09-18T20:51:52.508Z,99.90
2018-09-18T20:54:21.465Z,99.90
2018-09-18T20:56:50.437Z,99.90
2018-09-18T20:59:19.451Z,99.90
2018-09-18T21:01:48.503Z,99.90
2018-09-18T21:04:17.484Z,99.90
2018-09-18T21:06:46.592Z,99.90
2018-09-18T21:09:15.537Z,99.90
2018-09-18T21:11:44.593Z,99.90
2018-09-18T21:14:13.595Z,99.90
2018-09-18T21:16:42.598Z,99.90
2018-09-18T21:19:11.824Z,99.90
2018-09-18T21:21:40.803Z,99.90
2018-09-18T21:24:09.770Z,99.90
2018-09-18T21:26:38.790Z,99.90
2018-09-18T21:29:07.836Z,99.90
2018-09-18T21:31:36.887Z,99.90
2018-09-18T21:34:05.999Z,99.90
2018-09-18T21:36:34.926Z,99.90
2018-09-18T21:39:06.196Z,99.90
2018-09-18T21:41:35.487Z,99.90
2018-09-18T21:44:04.713Z,99.90
2018-09-18T21:46:33.763Z,99.90
2018-09-18T21:49:02.824Z,99.90
2018-09-18T21:51:31.851Z,99.90
2018-09-18T21:54:01.813Z,99.90
2018-09-18T21:56:30.859Z,99.90
2018-09-18T21:58:59.947Z,99.90
2018-09-18T22:01:29.080Z,99.90
2018-09-18T22:03:58.018Z,99.90
2018-09-18T22:06:27.044Z,99.90
2018-09-18T22:08:56.104Z,99.90
2018-09-18T22:11:25.040Z,99.90
2018-09-18T22:13:54.121Z,99.90
2018-09-18T22:16:23.168Z,99.90
2018-09-18T22:18:52.096Z,99.90
2018-09-18T22:21:21.283Z,99.90
2018-09-18T22:23:50.271Z,99.90
2018-09-18T22:26:19.215Z,99.90
2018-09-18T22:28:48.229Z,99.90
2018-09-18T22:31:17.286Z,99.90
2018-09-18T22:33:46.293Z,99.90
2018-09-18T22:36:15.613Z,99.90
2018-09-18T22:38:44.609Z,99.90
2018-09-18T22:41:13.583Z,99.90
2018-09-18T22:43:42.547Z,99.90
2018-09-18T22:46:11.567Z,99.90
2018-09-18T22:48:40.577Z,99.90
2018-09-18T22:51:09.569Z,99.90
2018-09-18T22:53:38.589Z,99.90
2018-09-18T22:56:07.554Z,99.90
2018-09-18T22:58:36.636Z,99.90
2018-09-18T23:01:05.618Z,99.90
2018-09-18T23:03:34.879Z,99.90
2018-09-18T23:06:03.837Z,99.90
2018-09-18T23:08:32.828Z,99.90
2018-09-18T23:11:01.917Z,99.90
2018-09-18T23:13:31.918Z,99.90
2018-09-18T23:16:00.956Z,99.90
2018-09-18T23:18:29.943Z,99.90
2018-09-18T23:20:58.912Z,99.90
2018-09-18T23:23:27.998Z,99.90
2018-09-18T23:25:56.933Z,99.90
2018-09-18T23:28:26.030Z,99.90
2018-09-18T23:30:54.997Z,99.90
2018-09-18T23:33:24.017Z,99.90
2018-09-18T23:35:53.077Z,99.90
2018-09-18T23:38:22.074Z,99.90
2018-09-18T23:40:51.100Z,99.90
2018-09-18T23:43:20.127Z,99.90
2018-09-18T23:45:49.098Z,99.90
2018-09-18T23:48:18.064Z,99.90
2018-09-18T23:50:47.049Z,99.90
2018-09-18T23:53:16.202Z,99.90
2018-09-18T23:55:45.354Z,99.90
2018-09-18T23:58:14.370Z,99.90
